createdAt,value
2022-11-18T00:02:17.668Z,10.80
2022-11-18T00:04:45.591Z,10.80
2022-11-18T00:07:13.653Z,10.80
2022-11-18T00:09:41.583Z,10.70
2022-11-18T00:12:28.041Z,10.70
2022-11-18T00:14:56.002Z,10.70
2022-11-18T00:17:24.031Z,10.70
2022-11-18T00:19:52.194Z,10.70
2022-11-18T00:22:22.280Z,10.60
2022-11-18T00:24:52.273Z,10.60
2022-11-18T00:27:20.346Z,10.60
2022-11-18T00:29:48.212Z,10.60
2022-11-18T00:32:16.116Z,10.60
2022-11-18T00:34:44.189Z,10.50
2022-11-18T00:37:12.128Z,10.50
2022-11-18T00:39:40.166Z,10.50
2022-11-18T00:42:26.508Z,10.40
2022-11-18T00:44:54.480Z,10.40
2022-11-18T00:47:22.374Z,10.40
2022-11-18T00:49:50.356Z,10.40
2022-11-18T00:52:18.224Z,10.30
2022-11-18T00:54:46.099Z,10.30
2022-11-18T00:57:14.130Z,10.30
2022-11-18T00:59:42.006Z,10.30
2022-11-18T01:02:09.941Z,10.30
2022-11-18T01:04:37.957Z,10.30
2022-11-18T01:07:05.869Z,10.30
2022-11-18T01:09:33.785Z,10.20
2022-11-18T01:12:20.366Z,10.20
2022-11-18T01:14:48.243Z,10.20
2022-11-18T01:17:16.204Z,10.10
2022-11-18T01:19:44.132Z,10.10
2022-11-18T01:22:12.068Z,10.10
2022-11-18T01:24:39.997Z,10.10
2022-11-18T01:27:08.149Z,10.10
2022-11-18T01:29:36.623Z,10.00
2022-11-18T01:34:52.733Z,10.00
2022-11-18T01:37:20.799Z,10.00
2022-11-18T01:39:48.833Z,10.00
2022-11-18T01:42:17.369Z,9.90
2022-11-18T01:45:11.602Z,9.90
2022-11-18T01:47:42.416Z,9.90
2022-11-18T01:50:10.995Z,9.90
2022-11-18T01:52:39.793Z,9.80
2022-11-18T01:55:12.794Z,9.80
2022-11-18T01:57:41.574Z,9.80
2022-11-18T02:00:10.138Z,9.80
2022-11-18T02:02:38.090Z,9.80
2022-11-18T02:05:07.061Z,9.80
2022-11-18T02:07:36.996Z,9.80
2022-11-18T02:10:06.322Z,9.80
2022-11-18T02:12:34.582Z,9.70
2022-11-18T02:15:02.924Z,9.70
2022-11-18T02:17:37.607Z,9.70
2022-11-18T02:20:05.640Z,9.60
2022-11-18T02:22:36.646Z,9.60
2022-11-18T02:25:13.525Z,9.60
2022-11-18T02:27:53.599Z,9.60
2022-11-18T02:30:21.616Z,9.60
2022-11-18T02:32:54.148Z,9.60
2022-11-18T02:35:39.920Z,9.50
2022-11-18T02:38:16.886Z,9.50
2022-11-18T02:40:50.163Z,9.50
2022-11-18T02:43:21.010Z,9.50
2022-11-18T02:45:51.508Z,9.50
2022-11-18T02:48:20.648Z,9.50
2022-11-18T02:50:49.966Z,9.50
2022-11-18T02:53:19.987Z,9.50
2022-11-18T02:55:49.176Z,9.40
2022-11-18T02:58:18.553Z,9.40
2022-11-18T03:00:53.506Z,9.40
2022-11-18T03:03:25.243Z,9.40
2022-11-18T03:06:00.693Z,9.40
2022-11-18T03:08:30.739Z,9.30
2022-11-18T03:11:13.785Z,9.30
2022-11-18T03:13:41.658Z,9.30
2022-11-18T03:16:19.441Z,9.30
2022-11-18T03:18:57.535Z,9.20
2022-11-18T03:21:32.574Z,9.20
2022-11-18T03:24:07.089Z,9.20
2022-11-18T03:26:38.820Z,9.20
2022-11-18T03:29:21.885Z,9.20
2022-11-18T03:31:53.848Z,9.20
2022-11-18T03:34:32.156Z,9.20
2022-11-18T03:37:05.146Z,9.10
2022-11-18T03:39:37.888Z,9.10
2022-11-18T03:42:12.136Z,9.10
2022-11-18T03:44:47.149Z,9.10
2022-11-18T03:47:26.859Z,9.00
2022-11-18T03:49:59.087Z,9.10
2022-11-18T03:52:29.644Z,9.00
2022-11-18T03:54:58.979Z,9.00
2022-11-18T03:57:47.314Z,9.00
2022-11-18T04:00:16.503Z,9.00
2022-11-18T04:02:44.987Z,8.90
2022-11-18T04:05:14.042Z,8.90
2022-11-18T04:08:03.056Z,8.90
2022-11-18T04:10:35.742Z,8.90
2022-11-18T04:13:12.965Z,8.90
2022-11-18T04:15:42.327Z,8.90
2022-11-18T04:18:10.742Z,8.80
2022-11-18T04:20:38.790Z,8.90
2022-11-18T04:23:07.264Z,8.80
2022-11-18T04:25:35.535Z,8.80
2022-11-18T04:28:03.621Z,8.80
2022-11-18T04:30:31.761Z,8.80
2022-11-18T04:32:59.693Z,8.80
2022-11-18T04:35:27.789Z,8.70
2022-11-18T04:37:55.734Z,8.70
2022-11-18T04:40:23.583Z,8.70
2022-11-18T04:42:51.611Z,8.70
2022-11-18T04:45:19.415Z,8.70
2022-11-18T04:47:47.243Z,8.70
2022-11-18T04:50:15.210Z,8.70
2022-11-18T04:52:43.203Z,8.70
2022-11-18T04:55:11.108Z,8.70
2022-11-18T04:57:39.121Z,8.70
2022-11-18T05:00:07.334Z,8.70
2022-11-18T05:02:35.282Z,8.70
2022-11-18T05:05:03.598Z,8.70
2022-11-18T05:07:31.797Z,8.70
2022-11-18T05:09:59.888Z,8.70
2022-11-18T05:12:49.248Z,8.70
2022-11-18T05:15:17.520Z,8.70
2022-11-18T05:17:45.604Z,8.70
2022-11-18T05:20:14.050Z,8.70
2022-11-18T05:22:42.102Z,8.70
2022-11-18T05:25:11.327Z,8.70
2022-11-18T05:27:39.278Z,8.70
2022-11-18T05:30:07.389Z,8.70
2022-11-18T05:32:35.349Z,8.70
2022-11-18T05:35:03.224Z,8.70
2022-11-18T05:37:33.004Z,8.70
2022-11-18T05:40:00.983Z,8.70
2022-11-18T05:42:47.065Z,8.70
2022-11-18T05:45:16.374Z,8.70
2022-11-18T05:48:04.758Z,8.80
2022-11-18T05:50:34.025Z,8.80
2022-11-18T05:53:02.508Z,8.80
2022-11-18T05:55:34.077Z,8.80
2022-11-18T05:58:04.907Z,8.80
2022-11-18T06:00:36.623Z,8.80
2022-11-18T06:03:09.810Z,8.90
2022-11-18T06:05:37.962Z,8.90
2022-11-18T06:08:06.013Z,8.90
2022-11-18T06:10:35.951Z,8.90
2022-11-18T06:13:05.794Z,8.90
2022-11-18T06:15:35.965Z,9.00
2022-11-18T06:18:07.312Z,9.30
2022-11-18T06:20:36.581Z,9.70
2022-11-18T06:23:04.562Z,10.10
2022-11-18T06:25:32.799Z,10.50
2022-11-18T06:28:02.039Z,10.80
2022-11-18T06:30:29.924Z,10.70
2022-11-18T06:32:57.777Z,10.50
2022-11-18T06:35:25.742Z,10.80
2022-11-18T06:37:53.900Z,11.30
2022-11-18T06:40:21.813Z,11.80
2022-11-18T06:43:08.392Z,12.30
2022-11-18T06:45:36.313Z,12.60
2022-11-18T06:48:04.589Z,13.00
2022-11-18T06:50:32.449Z,13.30
2022-11-18T06:53:01.206Z,13.30
2022-11-18T06:55:29.135Z,13.40
2022-11-18T06:57:57.535Z,13.20
2022-11-18T07:00:25.602Z,13.00
2022-11-18T07:02:53.490Z,13.50
2022-11-18T07:05:21.380Z,14.10
2022-11-18T07:07:51.984Z,14.40
2022-11-18T07:10:19.944Z,14.50
2022-11-18T07:12:47.973Z,14.30
2022-11-18T07:15:16.056Z,14.00
2022-11-18T07:17:44.006Z,14.00
2022-11-18T07:20:12.041Z,14.30
2022-11-18T07:22:40.224Z,14.70
2022-11-18T07:25:08.299Z,15.00
2022-11-18T07:27:36.366Z,15.40
2022-11-18T07:30:04.576Z,15.70
2022-11-18T07:32:33.493Z,16.00
2022-11-18T07:35:01.506Z,16.30
2022-11-18T07:37:29.528Z,16.60
2022-11-18T07:40:00.118Z,16.90
2022-11-18T07:42:28.144Z,17.20
2022-11-18T07:44:56.101Z,17.50
2022-11-18T07:47:23.975Z,17.90
2022-11-18T07:49:52.160Z,18.20
2022-11-18T07:52:20.013Z,18.60
2022-11-18T07:54:47.943Z,19.00
2022-11-18T07:57:15.972Z,19.50
2022-11-18T07:59:43.817Z,19.90
2022-11-18T08:02:12.349Z,20.30
2022-11-18T08:04:40.508Z,20.70
2022-11-18T08:07:11.611Z,21.00
2022-11-18T08:09:39.679Z,21.40
2022-11-18T08:12:07.825Z,21.70
2022-11-18T08:14:35.741Z,22.10
2022-11-18T08:17:03.745Z,22.50
2022-11-18T08:19:35.124Z,22.80
2022-11-18T08:22:03.333Z,23.20
2022-11-18T08:24:31.323Z,23.60
2022-11-18T08:26:59.213Z,24.00
2022-11-18T08:29:28.287Z,24.40
2022-11-18T08:31:56.596Z,24.80
2022-11-18T08:34:24.529Z,25.20
2022-11-18T08:36:52.466Z,25.50
2022-11-18T08:39:20.467Z,25.90
2022-11-18T08:41:48.423Z,26.20
2022-11-18T08:44:17.236Z,26.50
2022-11-18T08:46:48.025Z,26.80
2022-11-18T08:49:16.321Z,27.00
2022-11-18T08:51:44.736Z,27.40
2022-11-18T08:54:12.707Z,27.70
2022-11-18T08:56:43.715Z,28.00
2022-11-18T08:59:11.745Z,27.90
2022-11-18T09:01:42.400Z,28.10
2022-11-18T09:04:10.986Z,28.30
2022-11-18T09:06:40.583Z,28.60
2022-11-18T09:09:08.663Z,28.90
2022-11-18T09:11:38.358Z,29.20
2022-11-18T09:16:54.362Z,29.70
2022-11-18T09:19:46.096Z,29.90
2022-11-18T09:22:10.483Z,30.20
2022-11-18T09:24:38.547Z,30.60
2022-11-18T09:29:57.481Z,31.10
2022-11-18T09:32:25.590Z,31.60
2022-11-18T09:34:53.745Z,31.90
2022-11-18T09:37:22.919Z,32.20
2022-11-18T09:39:51.403Z,32.40
2022-11-18T09:42:28.165Z,32.80
2022-11-18T09:45:02.178Z,32.50
2022-11-18T09:47:30.780Z,31.80
2022-11-18T09:50:06.616Z,31.80
2022-11-18T09:52:52.184Z,32.20
2022-11-18T09:55:23.437Z,32.50
2022-11-18T09:57:52.606Z,33.10
2022-11-18T10:00:22.028Z,33.80
2022-11-18T10:02:58.010Z,34.30
2022-11-18T10:05:46.243Z,34.60
2022-11-18T10:08:14.228Z,33.70
2022-11-18T10:10:48.169Z,31.90
2022-11-18T10:13:26.252Z,30.60
2022-11-18T10:16:00.976Z,29.80
2022-11-18T10:19:02.268Z,29.30
2022-11-18T10:21:48.445Z,28.80
2022-11-18T10:24:22.326Z,28.20
2022-11-18T10:26:58.147Z,27.90
2022-11-18T10:29:26.607Z,27.60
2022-11-18T10:31:59.664Z,27.30
2022-11-18T10:34:36.208Z,27.00
2022-11-18T10:37:05.789Z,26.70
2022-11-18T10:39:34.638Z,26.50
2022-11-18T10:42:16.092Z,26.50
2022-11-18T10:44:44.868Z,26.20
2022-11-18T10:47:27.128Z,25.80
2022-11-18T10:49:56.441Z,25.40
2022-11-18T10:52:24.844Z,25.10
2022-11-18T10:55:13.644Z,24.90
2022-11-18T10:57:44.110Z,24.60
2022-11-18T11:00:30.687Z,24.50
2022-11-18T11:02:58.786Z,24.30
2022-11-18T11:05:27.496Z,24.20
2022-11-18T11:08:34.581Z,24.10
2022-11-18T11:10:58.324Z,24.10
2022-11-18T11:13:28.091Z,24.00
2022-11-18T11:15:57.374Z,24.00
2022-11-18T11:18:42.109Z,24.00
2022-11-18T11:21:17.619Z,24.20
2022-11-18T11:23:46.696Z,24.80
2022-11-18T11:29:24.919Z,28.10
2022-11-18T11:31:56.085Z,29.30
2022-11-18T11:34:33.320Z,30.70
2022-11-18T11:37:20.468Z,31.70
2022-11-18T11:40:10.215Z,32.20
2022-11-18T11:42:54.276Z,31.50
2022-11-18T11:45:28.983Z,31.30
2022-11-18T11:48:08.467Z,32.20
2022-11-18T11:51:01.891Z,31.50
2022-11-18T11:53:52.605Z,30.50
2022-11-18T11:56:35.396Z,29.40
2022-11-18T11:59:19.742Z,28.50
2022-11-18T12:01:51.783Z,27.60
2022-11-18T12:04:27.253Z,27.00
2022-11-18T12:06:56.245Z,26.60
2022-11-18T12:09:24.227Z,26.30
2022-11-18T12:11:56.514Z,26.00
2022-11-18T12:14:38.555Z,25.70
2022-11-18T12:17:15.006Z,25.40
2022-11-18T12:19:43.419Z,25.20
2022-11-18T12:22:11.707Z,24.90
2022-11-18T12:24:42.148Z,24.80
2022-11-18T12:27:10.434Z,24.80
2022-11-18T12:29:42.135Z,25.10
2022-11-18T12:32:28.902Z,25.40
2022-11-18T12:35:01.855Z,26.60
2022-11-18T12:37:29.805Z,28.30
2022-11-18T12:40:00.475Z,29.00
2022-11-18T12:42:53.364Z,29.30
2022-11-18T12:45:40.375Z,29.70
2022-11-18T12:48:27.974Z,28.80
2022-11-18T12:51:14.689Z,27.40
2022-11-18T12:53:44.284Z,26.40
2022-11-18T12:56:18.829Z,25.60
2022-11-18T12:58:47.944Z,24.90
2022-11-18T13:01:20.635Z,24.50
2022-11-18T13:03:48.851Z,24.10
2022-11-18T13:06:19.491Z,23.90
2022-11-18T13:08:58.800Z,23.60
2022-11-18T13:11:47.687Z,23.30
2022-11-18T13:14:43.925Z,23.20
2022-11-18T13:17:51.572Z,23.40
2022-11-18T13:20:47.654Z,23.10
2022-11-18T13:23:34.153Z,22.80
2022-11-18T13:26:04.440Z,22.70
2022-11-18T13:28:51.273Z,22.70
2022-11-18T13:31:19.202Z,22.70
2022-11-18T13:33:47.228Z,22.60
2022-11-18T13:36:33.867Z,22.60
2022-11-18T13:39:04.801Z,22.50
2022-11-18T13:41:34.910Z,22.50
2022-11-18T13:44:21.726Z,22.50
2022-11-18T13:46:52.139Z,22.60
2022-11-18T13:49:23.127Z,22.60
2022-11-18T13:51:52.948Z,22.50
2022-11-18T13:54:24.981Z,22.40
2022-11-18T13:56:53.454Z,22.40
2022-11-18T13:59:23.978Z,22.40
2022-11-18T14:01:54.327Z,22.30
2022-11-18T14:04:32.200Z,22.30
2022-11-18T14:07:38.866Z,22.20
2022-11-18T14:10:08.570Z,22.10
2022-11-18T14:12:37.283Z,21.90
2022-11-18T14:15:22.624Z,21.80
2022-11-18T14:17:56.167Z,21.70
2022-11-18T14:20:24.802Z,21.50
2022-11-18T14:22:54.978Z,21.40
2022-11-18T14:25:26.094Z,21.40
2022-11-18T14:27:57.793Z,21.20
2022-11-18T14:30:42.153Z,21.10
2022-11-18T14:33:20.843Z,21.10
2022-11-18T14:35:54.540Z,20.90
2022-11-18T14:38:52.374Z,20.70
2022-11-18T14:41:45.799Z,20.60
2022-11-18T14:44:14.144Z,20.40
2022-11-18T14:46:43.794Z,20.20
2022-11-18T14:49:17.327Z,20.10
2022-11-18T14:51:45.703Z,19.90
2022-11-18T14:54:25.178Z,19.80
2022-11-18T14:56:55.936Z,19.70
2022-11-18T14:59:24.086Z,19.60
2022-11-18T15:01:52.070Z,19.40
2022-11-18T15:04:22.391Z,19.40
2022-11-18T15:06:50.517Z,19.40
2022-11-18T15:09:18.466Z,19.30
2022-11-18T15:11:46.409Z,19.30
2022-11-18T15:14:14.436Z,19.20
2022-11-18T15:16:42.427Z,19.20
2022-11-18T15:19:13.835Z,19.20
2022-11-18T15:21:41.760Z,19.20
2022-11-18T15:24:09.773Z,19.10
2022-11-18T15:26:45.456Z,19.10
2022-11-18T15:29:18.642Z,19.00
2022-11-18T15:31:47.073Z,19.00
2022-11-18T15:34:15.231Z,19.00
2022-11-18T15:36:43.143Z,19.00
2022-11-18T15:39:11.550Z,19.00
2022-11-18T15:41:40.522Z,19.00
2022-11-18T15:44:09.708Z,18.90
2022-11-18T15:46:37.822Z,19.00
2022-11-18T15:49:09.080Z,19.00
2022-11-18T15:51:37.686Z,18.90
2022-11-18T15:54:05.526Z,18.90
2022-11-18T15:56:34.170Z,18.90
2022-11-18T15:59:03.281Z,18.80
2022-11-18T16:01:39.034Z,18.80
2022-11-18T16:04:08.274Z,18.70
2022-11-18T16:06:36.552Z,18.70
2022-11-18T16:09:05.061Z,18.70
2022-11-18T16:11:51.799Z,18.70
2022-11-18T16:14:20.659Z,18.70
2022-11-18T16:16:49.863Z,18.60
2022-11-18T16:19:21.852Z,18.60
2022-11-18T16:21:54.170Z,18.60
2022-11-18T16:24:23.760Z,18.60
2022-11-18T16:26:51.872Z,18.50
2022-11-18T16:29:21.191Z,18.50
2022-11-18T16:31:54.956Z,18.40
2022-11-18T16:34:24.425Z,18.40
2022-11-18T16:36:56.668Z,18.30
2022-11-18T16:39:26.097Z,18.20
2022-11-18T16:42:08.073Z,18.20
2022-11-18T16:44:37.395Z,18.10
2022-11-18T16:47:12.440Z,18.10
2022-11-18T16:49:42.103Z,18.10
2022-11-18T16:52:10.069Z,18.10
2022-11-18T16:54:44.394Z,18.10
2022-11-18T16:57:13.487Z,18.00
2022-11-18T16:59:41.421Z,18.00
2022-11-18T17:02:11.396Z,17.90
2022-11-18T17:04:39.613Z,17.90
2022-11-18T17:07:07.740Z,17.90
2022-11-18T17:09:36.197Z,17.80
2022-11-18T17:12:04.376Z,17.80
2022-11-18T17:14:32.417Z,17.70
2022-11-18T17:17:00.363Z,17.70
2022-11-18T17:19:28.477Z,17.70
2022-11-18T17:21:56.423Z,17.70
2022-11-18T17:24:24.885Z,17.60
2022-11-18T17:26:52.831Z,17.60
2022-11-18T17:29:21.390Z,17.50
2022-11-18T17:31:49.795Z,17.50
2022-11-18T17:34:18.294Z,17.60
2022-11-18T17:36:46.612Z,17.60
2022-11-18T17:39:14.503Z,17.50
2022-11-18T17:42:00.944Z,17.50
2022-11-18T17:44:29.996Z,17.40
2022-11-18T17:46:57.910Z,17.30
2022-11-18T17:49:26.171Z,17.30
2022-11-18T17:51:54.271Z,17.20
2022-11-18T17:54:22.628Z,17.10
2022-11-18T17:56:53.684Z,17.10
2022-11-18T17:59:23.243Z,17.00
2022-11-18T18:01:55.868Z,16.90
2022-11-18T18:04:27.382Z,16.90
2022-11-18T18:06:55.685Z,16.80
2022-11-18T18:09:29.947Z,16.80
2022-11-18T18:11:59.873Z,16.70
2022-11-18T18:14:27.891Z,16.60
2022-11-18T18:16:55.842Z,16.50
2022-11-18T18:19:23.883Z,16.40
2022-11-18T18:21:53.730Z,16.30
2022-11-18T18:24:22.397Z,16.20
2022-11-18T18:26:50.872Z,16.10
2022-11-18T18:29:18.809Z,16.00
2022-11-18T18:31:46.724Z,16.00
2022-11-18T18:34:15.479Z,16.00
2022-11-18T18:36:43.566Z,15.90
2022-11-18T18:39:13.859Z,15.90
2022-11-18T18:41:41.912Z,15.80
2022-11-18T18:44:15.211Z,15.80
2022-11-18T18:46:46.087Z,15.80
2022-11-18T18:49:15.649Z,15.80
2022-11-18T18:51:44.844Z,15.70
2022-11-18T18:54:14.120Z,15.80
2022-11-18T18:56:42.482Z,15.70
2022-11-18T18:59:10.710Z,15.70
2022-11-18T19:01:39.370Z,15.70
2022-11-18T19:04:08.095Z,15.70
2022-11-18T19:06:58.947Z,15.70
2022-11-18T19:09:25.858Z,15.70
2022-11-18T19:12:13.277Z,15.70
2022-11-18T19:14:41.440Z,15.70
2022-11-18T19:17:11.784Z,15.60
2022-11-18T19:19:59.707Z,15.60
2022-11-18T19:22:31.961Z,15.60
2022-11-18T19:25:01.021Z,15.50
2022-11-18T19:27:29.729Z,15.50
2022-11-18T19:29:57.814Z,15.60
2022-11-18T19:32:26.044Z,15.60
2022-11-18T19:34:53.939Z,15.50
2022-11-18T19:37:21.872Z,15.50
2022-11-18T19:39:49.879Z,15.40
2022-11-18T19:42:18.072Z,15.50
2022-11-18T19:44:46.478Z,15.40
2022-11-18T19:47:14.408Z,15.40
2022-11-18T19:49:42.502Z,15.40
2022-11-18T19:52:10.455Z,15.40
2022-11-18T19:54:39.824Z,15.40
2022-11-18T19:57:08.439Z,15.40
2022-11-18T19:59:36.494Z,15.40
2022-11-18T20:02:04.578Z,15.30
2022-11-18T20:04:32.598Z,15.30
2022-11-18T20:07:00.558Z,15.30
2022-11-18T20:09:28.791Z,15.30
2022-11-18T20:11:56.642Z,15.30
2022-11-18T20:14:24.467Z,15.30
2022-11-18T20:16:52.681Z,15.30
2022-11-18T20:19:20.891Z,15.30
2022-11-18T20:21:49.710Z,15.30
2022-11-18T20:24:19.004Z,15.20
2022-11-18T20:26:49.377Z,15.20
2022-11-18T20:29:18.134Z,15.20
2022-11-18T20:31:46.348Z,15.20
2022-11-18T20:34:14.705Z,15.20
2022-11-18T20:36:42.931Z,15.20
2022-11-18T20:39:15.132Z,15.20
2022-11-18T20:41:43.750Z,15.20
2022-11-18T20:44:11.713Z,15.10
2022-11-18T20:46:39.910Z,15.10
2022-11-18T20:49:07.845Z,15.10
2022-11-18T20:51:36.021Z,15.10
2022-11-18T20:54:08.495Z,15.10
2022-11-18T20:56:36.528Z,15.10
2022-11-18T20:59:04.594Z,15.10
2022-11-18T21:01:33.387Z,15.10
2022-11-18T21:04:02.311Z,15.00
2022-11-18T21:06:31.873Z,15.00
2022-11-18T21:09:01.147Z,15.00
2022-11-18T21:11:29.299Z,14.90
2022-11-18T21:14:21.545Z,15.00
2022-11-18T21:16:51.842Z,14.90
2022-11-18T21:19:20.114Z,14.90
2022-11-18T21:21:49.369Z,14.90
2022-11-18T21:24:18.493Z,14.90
2022-11-18T21:26:47.386Z,14.90
2022-11-18T21:29:16.495Z,15.00
2022-11-18T21:31:46.119Z,14.90
2022-11-18T21:34:14.770Z,14.90
2022-11-18T21:36:45.942Z,14.90
2022-11-18T21:39:17.878Z,14.90
2022-11-18T21:41:48.418Z,14.90
2022-11-18T21:44:20.246Z,14.90
2022-11-18T21:46:48.159Z,14.90
2022-11-18T21:49:16.453Z,14.80
2022-11-18T21:51:44.761Z,14.80
2022-11-18T21:54:13.244Z,14.80
2022-11-18T21:56:41.257Z,14.80
2022-11-18T21:59:09.258Z,14.80
2022-11-18T22:01:37.549Z,14.80
2022-11-18T22:04:05.795Z,14.70
2022-11-18T22:06:34.714Z,14.70
2022-11-18T22:09:04.064Z,14.70
2022-11-18T22:11:34.281Z,14.80
2022-11-18T22:14:02.257Z,14.70
2022-11-18T22:16:30.377Z,14.70
2022-11-18T22:19:03.570Z,14.70
2022-11-18T22:21:33.109Z,14.70
2022-11-18T22:24:01.585Z,14.70
2022-11-18T22:26:29.852Z,14.60
2022-11-18T22:28:58.355Z,14.60
2022-11-18T22:31:27.580Z,14.60
2022-11-18T22:33:56.049Z,14.50
2022-11-18T22:36:24.950Z,14.60
2022-11-18T22:38:55.531Z,14.60
2022-11-18T22:41:42.912Z,14.50
2022-11-18T22:44:11.333Z,14.50
2022-11-18T22:46:40.297Z,14.50
2022-11-18T22:49:09.013Z,14.50
2022-11-18T22:51:38.080Z,14.40
2022-11-18T22:56:54.736Z,14.40
2022-11-18T22:59:22.826Z,14.40
2022-11-18T23:01:51.861Z,14.40
2022-11-18T23:04:20.009Z,14.40
2022-11-18T23:06:51.272Z,14.40
2022-11-18T23:09:19.533Z,14.40
2022-11-18T23:12:06.288Z,14.30
2022-11-18T23:14:34.341Z,14.30
2022-11-18T23:17:02.296Z,14.20
2022-11-18T23:19:30.368Z,14.20
2022-11-18T23:21:58.312Z,14.20
2022-11-18T23:24:26.203Z,14.20
2022-11-18T23:26:54.211Z,14.10
2022-11-18T23:29:23.019Z,14.10
2022-11-18T23:31:51.140Z,14.10
2022-11-18T23:34:19.967Z,14.10
2022-11-18T23:36:47.910Z,14.10
2022-11-18T23:39:16.025Z,14.10
2022-11-18T23:41:43.952Z,14.10
2022-11-18T23:44:11.806Z,14.10
2022-11-18T23:46:39.681Z,14.10
2022-11-18T23:49:08.129Z,14.10
2022-11-18T23:51:36.125Z,14.00
2022-11-18T23:54:04.189Z,14.10
2022-11-18T23:56:37.443Z,14.00
2022-11-18T23:59:07.000Z,14.00
